Time;durP1;ratioP1;P1;durP2;ratioP2;P2;SDS_P1;SDS_P2;PMS_P1;PMS_P2;Temp;Humidity;BMP_temperature;BMP_pressure;BME280_temperature;BME280_humidity;BME280_pressure;Samples;Min_cycle;Max_cycle;Signal;HPM_P1;HPM_P2
2022/04/21 00:01:42;;;;;;;5.57;4.53;;;8.90;99.90;;;;;;4974227;28;20046;-63
2022/04/21 00:04:07;;;;;;;9.18;5.93;;;8.90;99.90;;;;;;4992110;28;20065;-63
2022/04/21 00:06:33;;;;;;;6.72;5.07;;;8.90;99.90;;;;;;5009296;28;20045;-63
2022/04/21 00:08:59;;;;;;;5.32;4.10;;;8.80;99.90;;;;;;5014192;28;20033;-63
2022/04/21 00:11:24;;;;;;;6.85;5.30;;;8.70;99.90;;;;;;5016636;28;20057;-63
2022/04/21 00:13:50;;;;;;;10.35;5.90;;;8.70;99.90;;;;;;5017142;28;20037;-64
2022/04/21 00:16:15;;;;;;;13.98;6.40;;;8.60;99.90;;;;;;5002630;28;20059;-63
2022/04/21 00:18:42;;;;;;;7.20;5.10;;;8.50;99.90;;;;;;4996517;28;20057;-63
2022/04/21 00:21:08;;;;;;;6.43;4.80;;;8.50;99.90;;;;;;4995700;28;20052;-64
2022/04/21 00:23:34;;;;;;;7.13;5.30;;;8.50;99.90;;;;;;5015821;28;20091;-63
2022/04/21 00:26:01;;;;;;;6.00;3.97;;;8.50;99.90;;;;;;5014922;28;20111;-64
2022/04/21 00:28:28;;;;;;;7.32;5.53;;;8.50;99.90;;;;;;5013744;28;20037;-64
2022/04/21 00:30:54;;;;;;;7.78;6.18;;;8.50;99.90;;;;;;5016453;28;20468;-63
2022/04/21 00:33:20;;;;;;;5.55;5.00;;;8.50;99.90;;;;;;5013421;28;20045;-64
2022/04/21 00:35:46;;;;;;;6.22;4.72;;;8.50;99.90;;;;;;5013584;28;20057;-64
2022/04/21 00:38:12;;;;;;;8.50;5.07;;;8.50;99.90;;;;;;4997744;28;20124;-63
2022/04/21 00:40:38;;;;;;;11.27;5.85;;;8.50;99.90;;;;;;5002085;28;20052;-64
2022/04/21 00:43:04;;;;;;;7.47;5.35;;;8.50;99.90;;;;;;5017827;28;20033;-64
2022/04/21 00:45:31;;;;;;;9.43;6.15;;;8.50;99.90;;;;;;5014312;28;20099;-63
2022/04/21 00:47:58;;;;;;;10.95;6.38;;;8.50;99.90;;;;;;5017835;28;20041;-63
2022/04/21 00:50:28;;;;;;;10.52;5.90;;;8.40;99.90;;;;;;5012274;28;20042;-64
2022/04/21 00:52:54;;;;;;;9.48;6.25;;;8.50;99.90;;;;;;5014397;28;20584;-63
2022/04/21 00:55:21;;;;;;;7.78;6.28;;;8.50;99.90;;;;;;4991593;28;20128;-63
2022/04/21 00:57:48;;;;;;;7.53;6.75;;;8.40;99.90;;;;;;5008534;28;20053;-63
2022/04/21 01:00:15;;;;;;;10.90;6.20;;;8.40;99.90;;;;;;4993633;28;20049;-63
2022/04/21 01:02:47;;;;;;;9.35;6.93;;;8.40;99.90;;;;;;4995776;28;20440;-63
2022/04/21 01:05:30;;;;;;;15.80;8.55;;;8.40;99.90;;;;;;4995791;28;20548;-63
2022/04/21 01:08:07;;;;;;;11.25;7.47;;;8.40;99.90;;;;;;5013269;28;20037;-64
2022/04/21 01:10:37;;;;;;;11.23;7.55;;;8.40;99.90;;;;;;5012116;28;20038;-63
2022/04/21 01:13:06;;;;;;;11.40;7.30;;;8.40;99.90;;;;;;5011434;28;20050;-63
2022/04/21 01:15:31;;;;;;;11.35;7.95;;;8.40;99.90;;;;;;5013572;28;20111;-63
2022/04/21 01:17:57;;;;;;;13.38;7.95;;;8.40;99.90;;;;;;5012921;28;20410;-63
2022/04/21 01:20:23;;;;;;;12.38;7.47;;;8.40;99.90;;;;;;5012726;28;20038;-63
2022/04/21 01:22:50;;;;;;;13.60;8.82;;;8.40;99.90;;;;;;5012133;28;20092;-63
2022/04/21 01:25:15;;;;;;;10.10;8.20;;;8.40;99.90;;;;;;5018679;28;20041;-63
2022/04/21 01:27:42;;;;;;;8.00;6.57;;;8.30;99.90;;;;;;5013901;28;20053;-64
2022/04/21 01:30:09;;;;;;;14.30;8.70;;;8.30;99.90;;;;;;5010536;28;20045;-63
2022/04/21 01:32:38;;;;;;;12.27;8.13;;;8.30;99.90;;;;;;5014363;28;20090;-63
2022/04/21 01:35:05;;;;;;;11.73;6.93;;;8.20;99.90;;;;;;5012775;28;20673;-63
2022/04/21 01:43:00;;;;;;;14.68;7.93;;;9.10;99.90;;;;;;5011653;28;20052;-64
2022/04/21 01:45:25;;;;;;;11.45;8.50;;;8.10;99.90;;;;;;5012318;28;20045;-63
2022/04/21 01:47:51;;;;;;;12.32;8.07;;;8.10;99.90;;;;;;5012697;28;20160;-63
2022/04/21 01:50:16;;;;;;;12.52;8.32;;;8.10;99.90;;;;;;5012711;28;20037;-63
2022/04/21 01:52:42;;;;;;;12.75;9.27;;;8.10;99.90;;;;;;5011982;28;20215;-64
2022/04/21 01:55:07;;;;;;;12.30;7.00;;;8.10;99.90;;;;;;5012797;28;20503;-63
2022/04/21 01:57:34;;;;;;;12.05;9.25;;;7.40;99.90;;;;;;5015665;28;20471;-65
2022/04/21 02:00:00;;;;;;;12.25;8.07;;;8.00;99.90;;;;;;5012014;28;20049;-64
2022/04/21 02:02:25;;;;;;;11.60;7.38;;;8.00;99.90;;;;;;4995241;28;20053;-64
2022/04/21 02:04:51;;;;;;;8.23;6.53;;;8.00;99.90;;;;;;5012722;28;20045;-62
2022/04/21 02:07:17;;;;;;;11.32;9.00;;;8.10;99.90;;;;;;5012247;28;20523;-62
2022/04/21 02:09:42;;;;;;;13.98;7.78;;;8.00;99.90;;;;;;5012461;28;20048;-62
2022/04/21 02:12:08;;;;;;;13.55;9.27;;;7.90;99.90;;;;;;5012679;28;20835;-62
2022/04/21 02:14:34;;;;;;;13.23;9.10;;;7.90;99.90;;;;;;5012572;28;20050;-62
2022/04/21 02:16:59;;;;;;;12.73;9.38;;;7.70;99.90;;;;;;5011911;28;20046;-63
2022/04/21 02:19:25;;;;;;;11.43;9.20;;;7.60;99.90;;;;;;4994238;28;20049;-63
2022/04/21 02:21:50;;;;;;;12.73;8.60;;;7.60;99.90;;;;;;5012211;28;20386;-62
2022/04/21 02:24:16;;;;;;;15.05;9.80;;;7.60;99.90;;;;;;5012145;28;20560;-62
2022/04/21 02:26:42;;;;;;;11.77;8.77;;;7.50;99.90;;;;;;5011112;28;20045;-63
2022/04/21 02:29:07;;;;;;;12.52;8.52;;;7.50;99.90;;;;;;4994755;28;20049;-63
2022/04/21 02:31:33;;;;;;;12.25;10.10;;;7.50;99.90;;;;;;5006952;28;20048;-62
2022/04/21 02:33:58;;;;;;;9.63;6.90;;;7.50;99.90;;;;;;4990197;28;20829;-63
2022/04/21 02:36:24;;;;;;;12.73;7.30;;;7.40;99.90;;;;;;5011499;28;20081;-63
2022/04/21 02:38:49;;;;;;;10.23;8.30;;;7.40;99.90;;;;;;5010234;28;20121;-63
2022/04/21 02:41:16;;;;;;;11.63;8.23;;;7.40;99.90;;;;;;5011146;28;20072;-63
2022/04/21 02:43:41;;;;;;;10.38;8.15;;;7.40;99.90;;;;;;5011296;28;20053;-63
2022/04/21 02:46:07;;;;;;;11.35;8.15;;;7.40;99.90;;;;;;5011278;28;20692;-63
2022/04/21 02:48:33;;;;;;;12.57;6.97;;;7.40;99.90;;;;;;5010999;28;20041;-64
2022/04/21 02:50:59;;;;;;;12.23;8.55;;;7.40;99.90;;;;;;5011492;28;20042;-63
2022/04/21 02:58:53;;;;;;;12.60;8.63;;;7.20;99.90;;;;;;5011857;28;20052;-63
2022/04/21 03:01:19;;;;;;;8.23;6.93;;;7.10;99.90;;;;;;5011545;28;20041;-63
2022/04/21 03:03:45;;;;;;;10.98;7.82;;;7.10;99.90;;;;;;4994278;28;20123;-63
2022/04/21 03:06:13;;;;;;;8.88;6.78;;;7.10;99.90;;;;;;4994090;28;20056;-63
2022/04/21 03:08:39;;;;;;;10.15;6.72;;;7.10;99.90;;;;;;5011684;28;20033;-63
2022/04/21 03:11:04;;;;;;;11.35;8.10;;;7.10;99.90;;;;;;5011254;28;20048;-64
2022/04/21 03:13:30;;;;;;;8.55;6.30;;;7.10;99.90;;;;;;4993741;28;20060;-63
2022/04/21 03:15:56;;;;;;;10.52;8.35;;;7.10;99.90;;;;;;5011217;28;20058;-63
2022/04/21 03:18:22;;;;;;;12.10;7.60;;;7.10;99.90;;;;;;5011327;28;20683;-63
2022/04/21 03:26:17;;;;;;;8.95;6.80;;;7.10;99.90;;;;;;5011666;28;20049;-63
2022/04/21 03:28:43;;;;;;;9.30;7.28;;;7.10;99.90;;;;;;5013460;28;20092;-64
2022/04/21 03:31:09;;;;;;;7.28;5.85;;;7.10;99.90;;;;;;5013777;28;20037;-64
2022/04/21 03:33:35;;;;;;;10.05;7.20;;;7.10;99.90;;;;;;5014383;28;20928;-63
2022/04/21 03:36:00;;;;;;;10.00;6.88;;;7.10;99.90;;;;;;5014771;28;20049;-63
2022/04/21 03:38:26;;;;;;;11.25;6.90;;;7.10;99.90;;;;;;5012194;28;20045;-63
2022/04/21 03:40:51;;;;;;;10.55;6.80;;;7.00;99.90;;;;;;4977843;28;20092;-63
2022/04/21 03:43:17;;;;;;;9.07;6.45;;;7.00;99.90;;;;;;4994962;28;20038;-63
2022/04/21 03:45:42;;;;;;;10.75;7.05;;;7.00;99.90;;;;;;4996440;28;20590;-63
2022/04/21 03:48:08;;;;;;;9.10;7.03;;;7.00;99.90;;;;;;4998210;28;20795;-63
2022/04/21 03:50:34;;;;;;;8.27;6.50;;;7.00;99.90;;;;;;4998052;28;20041;-63
2022/04/21 03:53:00;;;;;;;10.48;7.00;;;6.90;99.90;;;;;;4998400;28;20049;-63
2022/04/21 03:55:25;;;;;;;13.25;7.60;;;6.90;99.90;;;;;;4998591;28;20042;-63
2022/04/21 03:57:51;;;;;;;7.85;6.55;;;6.90;99.90;;;;;;4980753;28;20104;-63
2022/04/21 04:00:17;;;;;;;8.38;7.15;;;6.90;99.90;;;;;;4998046;28;20124;-63
2022/04/21 04:02:43;;;;;;;8.68;6.55;;;6.90;99.90;;;;;;4981122;28;20052;-64
2022/04/21 04:05:08;;;;;;;11.15;7.07;;;7.00;99.90;;;;;;4998016;28;20038;-64
2022/04/21 04:13:03;;;;;;;10.88;7.72;;;7.00;99.90;;;;;;4997991;28;20149;-64
2022/04/21 04:15:28;;;;;;;10.80;6.95;;;7.00;99.90;;;;;;4997782;28;20065;-62
2022/04/21 04:17:54;;;;;;;11.77;6.97;;;6.90;99.90;;;;;;4998185;28;20050;-62
2022/04/21 04:20:19;;;;;;;8.32;7.20;;;6.90;99.90;;;;;;4997451;28;20100;-62
2022/04/21 04:22:45;;;;;;;8.70;6.10;;;6.90;99.90;;;;;;4981133;28;20128;-62
2022/04/21 04:25:10;;;;;;;12.48;6.80;;;6.90;99.90;;;;;;4998479;28;20045;-63
2022/04/21 04:27:37;;;;;;;8.07;6.55;;;6.80;99.90;;;;;;4979683;28;20460;-62
2022/04/21 04:30:04;;;;;;;7.05;5.35;;;6.90;99.90;;;;;;4980912;28;20054;-62
2022/04/21 04:32:30;;;;;;;12.00;7.10;;;6.80;99.90;;;;;;4981263;28;20091;-62
2022/04/21 04:34:55;;;;;;;11.50;6.00;;;6.80;99.90;;;;;;4980604;28;20042;-62
2022/04/21 04:37:21;;;;;;;9.68;7.07;;;6.80;99.90;;;;;;4997866;28;20054;-62
2022/04/21 04:39:46;;;;;;;8.45;6.85;;;6.70;99.90;;;;;;4979637;28;20059;-62
2022/04/21 04:42:18;;;;;;;6.60;5.88;;;6.70;99.90;;;;;;4998146;28;20050;-62
2022/04/21 04:44:47;;;;;;;7.20;5.95;;;6.70;99.90;;;;;;4998014;28;20125;-62
2022/04/21 04:47:13;;;;;;;9.48;7.05;;;6.60;99.90;;;;;;4997150;28;20088;-62
2022/04/21 04:49:39;;;;;;;8.65;5.80;;;6.60;99.90;;;;;;4997481;28;20403;-62
2022/04/21 04:52:05;;;;;;;7.28;5.88;;;6.60;99.90;;;;;;4997578;28;20085;-62
2022/04/21 04:54:31;;;;;;;10.35;6.47;;;6.60;99.90;;;;;;4997601;28;20046;-62
2022/04/21 04:56:57;;;;;;;8.20;6.75;;;6.70;99.90;;;;;;4980388;28;20052;-62
2022/04/21 04:59:23;;;;;;;8.32;5.85;;;6.70;99.90;;;;;;4998615;28;20823;-62
2022/04/21 05:01:48;;;;;;;7.97;5.60;;;6.70;99.90;;;;;;4980558;28;20050;-62
2022/04/21 05:04:19;;;;;;;9.15;6.07;;;6.80;99.90;;;;;;4998194;28;20549;-62
2022/04/21 05:06:51;;;;;;;8.93;6.60;;;6.80;99.90;;;;;;4997924;28;20073;-62
2022/04/21 05:09:20;;;;;;;10.52;6.20;;;6.80;99.90;;;;;;4979463;28;20136;-63
2022/04/21 05:11:48;;;;;;;7.45;6.18;;;6.90;99.90;;;;;;4997582;28;20049;-63
2022/04/21 05:14:14;;;;;;;9.57;6.78;;;6.90;99.90;;;;;;4997359;28;20101;-63
2022/04/21 05:16:40;;;;;;;11.52;7.60;;;7.00;99.90;;;;;;4996658;28;20346;-63
2022/04/21 05:19:11;;;;;;;11.10;5.97;;;7.00;99.90;;;;;;4997104;28;20950;-63
2022/04/21 05:21:37;;;;;;;6.57;5.78;;;7.10;99.90;;;;;;4997599;28;20057;-62
2022/04/21 05:24:04;;;;;;;9.00;7.03;;;7.10;99.90;;;;;;4997357;28;20108;-63
2022/04/21 05:26:32;;;;;;;9.75;6.75;;;7.20;99.90;;;;;;4997847;28;20076;-63
2022/04/21 05:29:00;;;;;;;10.63;7.40;;;7.20;99.90;;;;;;4997243;28;20045;-63
2022/04/21 05:31:27;;;;;;;9.15;7.05;;;7.20;99.90;;;;;;4997761;28;20164;-63
2022/04/21 05:33:54;;;;;;;12.48;6.50;;;7.30;99.90;;;;;;4997748;28;20096;-63
2022/04/21 05:36:20;;;;;;;10.38;7.57;;;7.30;99.90;;;;;;4996827;28;20093;-63
2022/04/21 05:38:47;;;;;;;11.10;7.22;;;7.40;99.90;;;;;;4997685;28;20049;-63
2022/04/21 05:41:14;;;;;;;8.75;7.03;;;7.40;99.90;;;;;;4997401;28;20164;-63
2022/04/21 05:43:45;;;;;;;9.32;7.40;;;7.50;99.90;;;;;;4996873;28;20053;-63
2022/04/21 05:46:13;;;;;;;9.18;7.22;;;7.60;99.90;;;;;;4997045;28;20061;-63
2022/04/21 05:48:40;;;;;;;9.98;7.20;;;7.70;99.90;;;;;;4997110;28;20050;-63
2022/04/21 05:51:06;;;;;;;9.32;6.50;;;7.70;99.90;;;;;;4996278;28;20081;-63
2022/04/21 05:53:36;;;;;;;9.90;7.68;;;7.80;99.90;;;;;;4996597;28;20084;-63
2022/04/21 05:56:04;;;;;;;13.75;7.40;;;7.90;99.90;;;;;;4996367;28;20092;-63
2022/04/21 05:58:30;;;;;;;11.18;6.97;;;7.90;99.90;;;;;;4995612;28;20049;-65
2022/04/21 06:00:57;;;;;;;8.63;6.28;;;8.00;99.90;;;;;;4996023;28;20192;-63
2022/04/21 06:03:22;;;;;;;12.45;7.20;;;8.00;99.90;;;;;;4995863;28;20755;-63
2022/04/21 06:05:48;;;;;;;11.95;7.18;;;8.10;99.90;;;;;;4977913;28;20053;-63
2022/04/21 06:08:14;;;;;;;9.63;6.20;;;8.20;99.90;;;;;;4977806;28;20061;-63
2022/04/21 06:10:39;;;;;;;14.88;7.25;;;8.30;99.90;;;;;;4996459;28;20046;-63
2022/04/21 06:13:05;;;;;;;10.02;6.18;;;8.40;99.90;;;;;;4996018;28;20049;-63
2022/04/21 06:15:31;;;;;;;11.30;5.57;;;8.50;99.90;;;;;;4996154;28;20054;-63
2022/04/21 06:18:00;;;;;;;9.23;6.65;;;8.70;99.90;;;;;;4996202;28;20614;-63
2022/04/21 06:20:26;;;;;;;8.52;6.00;;;8.90;99.90;;;;;;4995938;28;20394;-63
2022/04/21 06:22:52;;;;;;;9.20;6.38;;;9.00;99.90;;;;;;4978950;28;20049;-63
2022/04/21 06:25:18;;;;;;;8.75;6.07;;;9.10;99.90;;;;;;4995262;28;20049;-63
2022/04/21 06:27:44;;;;;;;11.27;6.05;;;9.30;99.90;;;;;;4996369;28;20042;-63
2022/04/21 06:30:10;;;;;;;8.23;4.82;;;9.40;99.90;;;;;;4996657;28;20046;-63
2022/04/21 06:32:36;;;;;;;6.68;4.68;;;9.50;99.90;;;;;;4995809;28;20103;-63
2022/04/21 06:35:03;;;;;;;5.97;4.47;;;9.70;99.90;;;;;;4995492;28;20054;-63
2022/04/21 06:37:28;;;;;;;5.90;4.70;;;9.80;99.90;;;;;;4995337;28;20251;-63
2022/04/21 06:39:54;;;;;;;6.47;4.38;;;9.90;99.90;;;;;;4995076;28;20500;-63
2022/04/21 06:42:19;;;;;;;7.57;4.95;;;10.10;99.90;;;;;;4995757;28;20112;-63
2022/04/21 06:50:13;;;;;;;6.03;4.20;;;10.60;99.90;;;;;;5004944;28;20207;-62
2022/04/21 06:52:39;;;;;;;5.47;3.63;;;10.90;99.90;;;;;;5015010;28;20045;-62
2022/04/21 06:55:05;;;;;;;5.32;3.80;;;11.10;99.90;;;;;;5014834;28;20098;-63
2022/04/21 06:57:30;;;;;;;4.50;3.67;;;11.10;99.90;;;;;;5015778;28;20053;-63
2022/04/21 06:59:56;;;;;;;5.05;3.40;;;11.40;99.90;;;;;;5015464;28;20153;-63
2022/04/21 07:02:31;;;;;;;4.95;3.38;;;11.80;99.90;;;;;;5014333;28;20456;-63
2022/04/21 07:05:08;;;;;;;5.38;3.35;;;13.00;99.90;;;;;;5028055;28;20571;-63
2022/04/21 07:07:34;;;;;;;5.15;4.03;;;14.60;98.60;;;;;;4998602;28;20045;-63
2022/04/21 07:10:02;;;;;;;12.40;3.88;;;15.80;96.90;;;;;;4996851;28;20049;-63
2022/04/21 07:12:29;;;;;;;3.83;3.05;;;16.80;94.00;;;;;;4996621;28;20057;-63
2022/04/21 07:14:59;;;;;;;5.57;3.55;;;17.50;92.20;;;;;;5013884;28;20072;-63
2022/04/21 07:17:25;;;;;;;5.40;3.13;;;18.00;89.70;;;;;;5015422;28;20053;-63
2022/04/21 07:19:51;;;;;;;3.28;3.00;;;18.70;89.90;;;;;;5018047;28;20122;-63
2022/04/21 07:22:25;;;;;;;6.00;2.75;;;18.20;84.70;;;;;;5000542;28;20723;-63
2022/04/21 07:24:54;;;;;;;5.65;3.55;;;18.10;83.50;;;;;;5001948;28;20583;-63
2022/04/21 07:27:21;;;;;;;3.95;2.60;;;18.40;77.70;;;;;;5019197;28;20081;-63
2022/04/21 07:29:47;;;;;;;3.78;2.75;;;18.60;79.40;;;;;;5001373;28;20108;-63
2022/04/21 07:32:13;;;;;;;4.13;2.63;;;18.60;79.70;;;;;;5001855;28;20060;-63
2022/04/21 07:34:38;;;;;;;5.90;2.85;;;18.80;79.40;;;;;;5001713;28;20051;-64
2022/04/21 07:37:04;;;;;;;5.57;3.20;;;18.60;78.80;;;;;;5018764;28;20413;-63
2022/04/21 07:39:31;;;;;;;6.60;2.70;;;19.00;75.20;;;;;;5029963;28;20055;-64
2022/04/21 07:41:59;;;;;;;6.50;2.92;;;19.10;75.80;;;;;;5038569;28;20048;-63
2022/04/21 07:44:28;;;;;;;4.13;2.55;;;19.50;74.10;;;;;;5038668;28;20044;-63
2022/04/21 07:46:54;;;;;;;4.20;3.00;;;19.70;72.70;;;;;;5038891;28;20052;-64
2022/04/21 07:54:49;;;;;;;3.67;3.10;;;20.10;71.50;;;;;;5021179;28;20121;-64
2022/04/21 07:57:15;;;;;;;4.47;3.15;;;20.20;70.90;;;;;;5038031;28;20148;-63
2022/04/21 07:59:41;;;;;;;5.18;3.13;;;19.80;70.20;;;;;;5016626;28;20080;-63
2022/04/21 08:02:08;;;;;;;3.80;2.53;;;19.70;68.70;;;;;;4993983;28;20045;-63
2022/04/21 08:04:34;;;;;;;2.90;2.55;;;19.90;70.50;;;;;;4996825;28;20046;-63
2022/04/21 08:07:00;;;;;;;4.40;3.20;;;19.80;66.60;;;;;;5015729;28;20087;-63
2022/04/21 08:09:25;;;;;;;13.65;4.97;;;19.70;69.00;;;;;;4999155;28;20159;-63
2022/04/21 08:11:51;;;;;;;5.95;3.28;;;19.10;67.10;;;;;;5018070;28;20102;-63
2022/04/21 08:14:17;;;;;;;2.83;2.53;;;19.90;70.30;;;;;;5016336;28;20073;-64
2022/04/21 08:16:43;;;;;;;4.07;3.40;;;20.60;69.40;;;;;;5017784;28;20053;-63
2022/04/21 08:19:10;;;;;;;10.27;3.80;;;20.70;66.30;;;;;;5017617;28;20061;-64
2022/04/21 08:21:37;;;;;;;4.10;3.30;;;20.10;66.50;;;;;;5017181;28;20056;-63
2022/04/21 08:32:33;;;;;;;5.32;3.42;;;20.50;65.00;;;;;;5017102;28;20087;-63
2022/04/21 08:35:02;;;;;;;5.47;3.22;;;19.70;66.20;;;;;;5017798;28;20064;-64
2022/04/21 08:37:28;;;;;;;5.28;3.10;;;19.70;66.60;;;;;;5017822;28;20053;-65
2022/04/21 08:39:55;;;;;;;4.88;2.88;;;20.20;66.60;;;;;;5031604;28;20968;-64
2022/04/21 08:42:21;;;;;;;4.57;3.53;;;19.80;65.70;;;;;;5037030;28;20400;-65
2022/04/21 08:44:49;;;;;;;3.20;2.90;;;20.10;66.10;;;;;;5037715;28;20056;-64
2022/04/21 08:47:18;;;;;;;7.20;3.50;;;20.60;66.00;;;;;;5037249;28;20064;-64
2022/04/21 08:49:50;;;;;;;6.72;3.38;;;20.70;63.50;;;;;;5037867;28;20045;-64
2022/04/21 08:52:17;;;;;;;3.92;3.00;;;21.00;65.30;;;;;;5037637;28;20423;-64
2022/04/21 08:54:42;;;;;;;3.33;2.60;;;20.90;63.40;;;;;;5037229;28;20053;-64
2022/04/21 08:57:09;;;;;;;2.88;2.20;;;20.50;63.90;;;;;;5037163;28;20041;-65
2022/04/21 08:59:35;;;;;;;2.78;2.53;;;20.70;63.00;;;;;;5037200;28;20551;-64
2022/04/21 09:02:01;;;;;;;3.53;2.80;;;20.50;62.60;;;;;;5036353;28;20080;-64
2022/04/21 09:04:29;;;;;;;3.38;2.45;;;20.40;61.40;;;;;;5019402;28;20056;-64
2022/04/21 09:06:54;;;;;;;3.65;3.08;;;20.40;62.30;;;;;;5036734;28;20533;-64
2022/04/21 09:09:21;;;;;;;9.55;4.25;;;20.60;62.70;;;;;;5035790;28;20086;-64
2022/04/21 09:11:52;;;;;;;4.60;3.10;;;20.70;62.20;;;;;;5036992;28;20048;-64
2022/04/21 09:14:20;;;;;;;9.15;3.58;;;20.60;62.80;;;;;;5035963;28;20044;-64
2022/04/21 09:16:46;;;;;;;3.65;2.97;;;20.30;63.20;;;;;;5037662;28;20052;-64
2022/04/21 09:19:13;;;;;;;4.15;3.15;;;20.10;62.70;;;;;;5019630;28;20063;-64
2022/04/21 09:21:40;;;;;;;3.28;2.97;;;19.50;63.00;;;;;;5036305;28;20231;-64
2022/04/21 09:24:24;;;;;;;8.00;2.92;;;19.50;64.80;;;;;;5036793;28;20606;-64
2022/04/21 09:26:51;;;;;;;7.70;3.47;;;20.30;62.70;;;;;;5036941;28;20051;-64
2022/04/21 09:29:32;;;;;;;4.70;3.20;;;19.80;63.90;;;;;;5036288;28;20053;-64
2022/04/21 09:32:02;;;;;;;3.65;3.17;;;20.40;61.60;;;;;;5018918;28;20068;-64
2022/04/21 09:34:29;;;;;;;5.65;3.08;;;20.60;62.30;;;;;;5037141;28;20045;-64
2022/04/21 09:36:57;;;;;;;3.50;2.65;;;20.90;62.10;;;;;;5036261;28;20049;-64
2022/04/21 09:39:23;;;;;;;4.53;3.22;;;21.00;61.30;;;;;;5036137;28;20433;-64
2022/04/21 09:41:55;;;;;;;5.95;3.17;;;21.10;60.80;;;;;;5036586;28;20126;-64
2022/04/21 09:47:19;;;;;;;6.88;3.22;;;21.00;60.70;;;;;;5036127;28;20056;-64
2022/04/21 09:49:45;;;;;;;5.90;3.78;;;20.80;62.00;;;;;;5018490;28;20124;-64
2022/04/21 09:52:11;;;;;;;3.88;3.45;;;20.30;61.70;;;;;;5018600;28;20099;-64
2022/04/21 09:54:36;;;;;;;5.93;3.35;;;20.30;62.30;;;;;;5036664;28;20052;-64
2022/04/21 09:57:03;;;;;;;3.33;3.03;;;20.10;64.00;;;;;;5035427;28;20102;-64
2022/04/21 09:59:29;;;;;;;4.00;3.60;;;20.20;64.70;;;;;;5018914;28;20810;-64
2022/04/21 10:01:55;;;;;;;3.95;3.65;;;20.20;64.30;;;;;;5035574;28;20074;-64
2022/04/21 10:04:29;;;;;;;3.58;3.22;;;19.80;63.10;;;;;;5110015;27;20406;-62
2022/04/21 10:06:55;;;;;;;5.00;3.72;;;19.80;63.90;;;;;;5090369;28;20056;-62
2022/04/21 10:09:21;;;;;;;4.43;3.13;;;20.00;64.40;;;;;;5090239;28;20116;-62
2022/04/21 10:11:47;;;;;;;5.97;3.20;;;20.00;63.20;;;;;;5090467;28;20569;-62
2022/04/21 10:14:15;;;;;;;4.35;2.92;;;20.10;63.60;;;;;;5090740;28;20126;-62
2022/04/21 10:16:42;;;;;;;5.88;3.40;;;20.50;62.80;;;;;;5090000;28;20085;-63
2022/04/21 10:19:09;;;;;;;6.85;3.38;;;20.10;61.40;;;;;;5089935;28;20673;-62
2022/04/21 10:21:51;;;;;;;6.15;3.20;;;20.20;63.10;;;;;;5091081;28;20050;-63
2022/04/21 10:24:24;;;;;;;3.65;2.80;;;20.40;62.50;;;;;;5090845;28;20079;-63
2022/04/21 10:26:51;;;;;;;6.93;2.90;;;20.70;61.00;;;;;;5090457;28;20963;-63
2022/04/21 10:29:19;;;;;;;2.70;2.50;;;20.80;61.30;;;;;;5090116;28;20455;-64
2022/04/21 10:32:00;;;;;;;2.78;2.50;;;20.60;61.30;;;;;;5090416;28;20055;-65
2022/04/21 10:34:31;;;;;;;2.83;2.40;;;20.90;60.40;;;;;;5090162;28;20062;-65
2022/04/21 10:37:12;;;;;;;3.55;2.55;;;21.10;62.00;;;;;;5090398;28;20039;-64
2022/04/21 10:39:39;;;;;;;3.50;2.97;;;20.30;59.80;;;;;;5089130;28;20047;-64
2022/04/21 10:42:18;;;;;;;3.80;3.17;;;20.30;61.80;;;;;;5089694;28;20039;-64
2022/04/21 10:44:49;;;;;;;5.32;2.92;;;20.30;60.20;;;;;;5088702;28;20060;-64
2022/04/21 10:47:35;;;;;;;3.17;2.58;;;20.00;61.50;;;;;;5089929;28;20974;-64
2022/04/21 10:50:11;;;;;;;3.72;2.85;;;20.00;60.00;;;;;;5089660;28;20055;-65
2022/04/21 10:57:49;;;;;;;4.60;3.47;;;19.10;60.70;;;;;;5090355;28;20126;-65
2022/04/21 11:00:26;;;;;;;4.28;2.90;;;18.20;61.20;;;;;;5089295;28;20497;-64
2022/04/21 11:03:02;;;;;;;3.92;3.08;;;17.60;62.50;;;;;;5090030;28;20074;-64
2022/04/21 11:05:33;;;;;;;3.80;2.75;;;17.60;62.80;;;;;;5089841;28;20845;-64
2022/04/21 11:08:18;;;;;;;3.28;2.58;;;17.70;61.90;;;;;;5088044;28;20513;-64
2022/04/21 11:10:44;;;;;;;3.42;2.70;;;17.90;61.70;;;;;;5090015;28;20053;-64
2022/04/21 11:13:12;;;;;;;3.03;2.75;;;18.10;61.50;;;;;;5089882;28;20790;-64
2022/04/21 11:15:49;;;;;;;3.20;2.85;;;18.10;61.70;;;;;;5075968;28;20055;-64
2022/04/21 11:18:18;;;;;;;4.90;3.95;;;18.10;61.40;;;;;;5076455;28;20215;-64
2022/04/21 11:20:48;;;;;;;3.72;2.80;;;18.10;61.60;;;;;;5075695;28;20054;-64
2022/04/21 11:23:29;;;;;;;4.90;2.72;;;18.20;62.90;;;;;;5074310;28;20047;-64
2022/04/21 11:26:06;;;;;;;4.60;3.05;;;18.20;63.00;;;;;;5075807;28;20518;-64
2022/04/21 11:28:32;;;;;;;4.38;2.97;;;18.00;62.30;;;;;;5075326;28;20052;-65
2022/04/21 11:31:00;;;;;;;5.57;3.60;;;18.10;62.20;;;;;;5074234;28;20216;-64
2022/04/21 11:33:25;;;;;;;3.50;3.20;;;18.00;62.40;;;;;;5075215;28;20056;-65
2022/04/21 11:36:03;;;;;;;2.75;2.53;;;17.70;62.80;;;;;;5075432;28;20059;-65
2022/04/21 11:38:30;;;;;;;4.63;2.90;;;17.80;63.80;;;;;;5077020;28;20052;-65
2022/04/21 11:40:56;;;;;;;5.93;3.17;;;17.80;64.00;;;;;;5077888;28;20084;-62
2022/04/21 11:43:21;;;;;;;4.32;2.58;;;18.00;63.70;;;;;;5076751;28;20179;-64
2022/04/21 11:45:58;;;;;;;5.50;3.40;;;18.00;63.20;;;;;;5077832;28;20086;-64
2022/04/21 11:48:42;;;;;;;5.75;2.90;;;18.10;62.80;;;;;;5077479;28;20101;-64
2022/04/21 11:51:10;;;;;;;2.70;2.47;;;18.10;63.00;;;;;;5077157;28;20055;-64
2022/04/21 11:53:40;;;;;;;4.57;3.03;;;18.00;63.20;;;;;;5077386;28;20814;-64
2022/04/21 11:56:07;;;;;;;4.32;2.58;;;18.00;64.30;;;;;;5075073;28;20154;-64
2022/04/21 11:58:35;;;;;;;2.88;2.63;;;18.20;63.00;;;;;;5077644;28;20036;-64
2022/04/21 12:06:39;;;;;;;3.70;3.40;;;17.70;63.30;;;;;;5076962;28;20416;-65
2022/04/21 12:09:14;;;;;;;4.15;2.70;;;17.50;63.50;;;;;;5076935;28;20048;-65
2022/04/21 12:11:40;;;;;;;5.97;3.67;;;17.40;63.60;;;;;;5076151;28;20079;-64
2022/04/21 12:14:06;;;;;;;5.03;3.13;;;17.20;63.60;;;;;;5076928;28;20044;-65
2022/04/21 12:16:42;;;;;;;4.45;3.28;;;17.10;64.30;;;;;;5077042;28;20144;-64
2022/04/21 12:19:16;;;;;;;5.45;3.22;;;17.10;65.00;;;;;;5075960;28;20043;-65
2022/04/21 12:21:43;;;;;;;4.82;2.90;;;17.20;66.80;;;;;;5076166;28;20583;-65
2022/04/21 12:24:17;;;;;;;7.13;3.35;;;17.20;65.30;;;;;;5075797;28;20702;-65
2022/04/21 12:26:48;;;;;;;3.65;3.35;;;17.50;65.50;;;;;;5075635;28;20098;-65
2022/04/21 12:29:13;;;;;;;3.92;3.30;;;17.50;65.50;;;;;;5075592;28;20138;-65
2022/04/21 12:32:01;;;;;;;4.88;3.30;;;17.40;65.00;;;;;;5076256;28;20043;-64
2022/04/21 12:34:33;;;;;;;3.08;2.78;;;17.40;65.10;;;;;;5077005;28;20034;-65
2022/04/21 12:37:00;;;;;;;5.32;2.88;;;17.80;65.40;;;;;;5076293;28;20058;-65
2022/04/21 12:39:28;;;;;;;3.65;3.00;;;17.90;64.40;;;;;;5075753;28;20067;-65
2022/04/21 12:41:55;;;;;;;4.05;3.58;;;18.00;63.70;;;;;;5075489;28;20050;-65
2022/04/21 12:44:23;;;;;;;3.85;3.10;;;18.00;64.30;;;;;;5073915;28;20079;-65
2022/04/21 12:47:11;;;;;;;7.10;3.40;;;17.90;65.60;;;;;;5075114;28;20044;-65
2022/04/21 12:49:58;;;;;;;6.63;3.28;;;18.00;64.80;;;;;;5076039;28;20060;-65
2022/04/21 12:52:45;;;;;;;4.90;3.22;;;18.00;65.60;;;;;;5074370;28;20105;-65
2022/04/21 12:55:20;;;;;;;6.15;3.47;;;18.10;64.40;;;;;;5064172;28;20048;-65
2022/04/21 12:58:09;;;;;;;3.90;3.50;;;17.90;66.60;;;;;;5053532;28;20055;-65
2022/04/21 13:00:41;;;;;;;5.97;3.97;;;17.70;67.00;;;;;;5054892;28;20399;-64
2022/04/21 13:03:10;;;;;;;5.25;3.53;;;17.30;65.60;;;;;;5053317;28;20061;-64
2022/04/21 13:05:49;;;;;;;5.25;3.88;;;17.50;67.80;;;;;;5056477;28;20568;-64
2022/04/21 13:08:18;;;;;;;5.20;3.72;;;17.40;67.90;;;;;;5063521;28;20036;-64
2022/04/21 13:10:44;;;;;;;4.32;3.65;;;17.40;67.20;;;;;;5053987;28;20045;-65
2022/04/21 13:13:10;;;;;;;6.25;4.00;;;17.50;66.70;;;;;;5056986;28;20876;-65
2022/04/21 13:15:36;;;;;;;3.03;2.83;;;17.70;65.40;;;;;;5062585;28;20040;-65
2022/04/21 13:18:01;;;;;;;5.60;3.58;;;17.80;65.00;;;;;;5062217;28;20766;-65
2022/04/21 13:23:11;;;;;;;3.45;2.70;;;17.70;64.80;;;;;;5062427;28;20094;-64
2022/04/21 13:25:37;;;;;;;7.57;3.38;;;17.80;64.40;;;;;;5064503;28;20036;-64
2022/04/21 13:28:02;;;;;;;4.97;3.88;;;17.90;65.20;;;;;;5059268;28;20551;-65
2022/04/21 13:30:28;;;;;;;5.22;3.78;;;17.90;65.70;;;;;;5060960;28;20511;-64
2022/04/21 13:35:40;;;;;;;4.40;3.78;;;17.90;64.80;;;;;;5059090;28;20048;-65
2022/04/21 13:38:06;;;;;;;5.55;4.35;;;18.00;66.00;;;;;;5056486;28;20436;-65
2022/04/21 13:40:31;;;;;;;7.13;4.50;;;18.00;66.30;;;;;;5068488;28;20051;-64
2022/04/21 13:42:57;;;;;;;6.43;4.40;;;17.90;65.90;;;;;;5059393;28;20040;-64
2022/04/21 13:45:23;;;;;;;6.80;4.35;;;17.90;66.30;;;;;;5057657;28;20496;-65
2022/04/21 13:47:48;;;;;;;6.50;4.40;;;18.20;66.40;;;;;;5054681;28;20037;-64
2022/04/21 13:50:14;;;;;;;5.63;3.95;;;18.10;66.10;;;;;;5058097;28;20037;-64
2022/04/21 13:52:41;;;;;;;9.98;4.32;;;18.30;66.80;;;;;;5066939;28;20040;-64